createdAt,value
2022-12-01T00:01:08.293Z,18.98
2022-12-01T00:03:35.069Z,19.88
2022-12-01T00:06:03.040Z,19.63
2022-12-01T00:08:29.886Z,21.55
2022-12-01T00:10:56.698Z,22.75
2022-12-01T00:13:23.526Z,20.80
2022-12-01T00:15:50.331Z,17.05
2022-12-01T00:18:17.106Z,23.92
2022-12-01T00:20:43.852Z,21.65
2022-12-01T00:23:10.622Z,23.17
2022-12-01T00:25:37.468Z,22.17
2022-12-01T00:28:04.526Z,21.20
2022-12-01T00:30:31.293Z,23.80
2022-12-01T00:32:58.354Z,18.55
2022-12-01T00:35:25.624Z,25.88
2022-12-01T00:37:52.452Z,19.13
2022-12-01T00:40:19.312Z,18.33
2022-12-01T00:42:46.089Z,17.77
2022-12-01T00:45:12.873Z,18.13
2022-12-01T00:47:39.703Z,24.45
2022-12-01T00:50:06.976Z,21.20
2022-12-01T00:52:33.772Z,19.35
2022-12-01T00:55:00.558Z,18.73
2022-12-01T00:57:27.336Z,20.23
2022-12-01T00:59:54.098Z,19.20
2022-12-01T01:02:20.932Z,16.38
2022-12-01T01:04:47.747Z,18.13
2022-12-01T01:07:14.521Z,22.17
2022-12-01T01:09:41.287Z,18.27
2022-12-01T01:12:08.214Z,18.58
2022-12-01T01:14:35.090Z,20.80
2022-12-01T01:17:01.933Z,20.55
2022-12-01T01:19:28.698Z,17.52
2022-12-01T01:21:55.501Z,18.98
2022-12-01T01:24:22.285Z,18.20
2022-12-01T01:26:49.325Z,20.92
2022-12-01T01:29:16.080Z,21.85
2022-12-01T01:31:42.913Z,21.52
2022-12-01T01:34:09.677Z,18.88
2022-12-01T01:36:36.480Z,29.52
2022-12-01T01:39:03.488Z,20.40
2022-12-01T01:41:30.253Z,17.98
2022-12-01T01:43:58.863Z,17.80
2022-12-01T01:46:30.399Z,21.40
2022-12-01T01:49:02.192Z,20.95
2022-12-01T01:51:49.096Z,19.05
2022-12-01T01:54:26.678Z,19.52
2022-12-01T01:56:53.483Z,24.30
2022-12-01T01:59:28.387Z,17.60
2022-12-01T02:02:03.625Z,18.67
2022-12-01T02:04:30.457Z,23.13
2022-12-01T02:06:57.257Z,16.88
2022-12-01T02:09:24.731Z,21.52
2022-12-01T02:12:17.381Z,22.33
2022-12-01T02:15:09.013Z,23.33
2022-12-01T02:17:46.230Z,20.42
2022-12-01T02:20:18.820Z,19.05
2022-12-01T02:23:17.062Z,20.38
2022-12-01T02:30:15.653Z,16.92
2022-12-01T02:33:09.954Z,17.02
2022-12-01T02:35:48.120Z,16.42
2022-12-01T02:38:34.835Z,21.63
2022-12-01T02:41:23.093Z,19.30
2022-12-01T02:43:58.696Z,20.02
2022-12-01T02:46:37.325Z,22.27
2022-12-01T02:49:12.011Z,17.38
2022-12-01T02:51:38.759Z,22.67
2022-12-01T02:54:05.617Z,20.63
2022-12-01T02:56:32.386Z,19.98
2022-12-01T02:58:59.152Z,20.23
2022-12-01T03:01:44.926Z,19.05
2022-12-01T03:04:32.927Z,19.00
2022-12-01T03:07:41.841Z,16.27
2022-12-01T03:10:14.744Z,18.52
2022-12-01T03:12:57.749Z,20.15
2022-12-01T03:15:30.285Z,16.77
2022-12-01T03:18:11.248Z,17.53
2022-12-01T03:20:41.890Z,17.40
2022-12-01T03:23:15.651Z,15.35
2022-12-01T03:25:43.450Z,21.42
2022-12-01T03:28:21.057Z,14.82
2022-12-01T03:30:49.200Z,15.90
2022-12-01T03:33:21.197Z,16.63
2022-12-01T03:35:56.316Z,18.27
2022-12-01T03:38:27.109Z,19.85
2022-12-01T03:41:02.202Z,16.73
2022-12-01T03:43:31.878Z,19.15
2022-12-01T03:46:23.761Z,17.88
2022-12-01T03:48:52.852Z,19.05
2022-12-01T03:51:25.679Z,17.38
2022-12-01T03:54:03.348Z,18.45
2022-12-01T03:56:33.085Z,18.92
2022-12-01T03:59:00.617Z,19.15
2022-12-01T04:01:32.711Z,20.15
2022-12-01T04:04:11.421Z,16.85
2022-12-01T04:06:39.162Z,14.70
2022-12-01T04:09:05.942Z,17.40
2022-12-01T04:11:51.184Z,16.58
2022-12-01T04:14:17.948Z,20.95
2022-12-01T04:16:44.745Z,15.25
2022-12-01T04:19:11.714Z,20.30
2022-12-01T04:21:38.510Z,16.65
2022-12-01T04:24:05.521Z,18.60
2022-12-01T04:26:34.220Z,16.45
2022-12-01T04:29:01.733Z,13.05
2022-12-01T04:31:28.647Z,15.82
2022-12-01T04:33:56.296Z,13.20
2022-12-01T04:36:23.960Z,12.98
2022-12-01T04:38:50.950Z,14.88
2022-12-01T04:41:17.809Z,16.10
2022-12-01T04:43:44.763Z,14.63
2022-12-01T04:46:11.677Z,15.73
2022-12-01T04:48:39.127Z,13.70
2022-12-01T04:51:06.911Z,13.52
2022-12-01T04:53:46.052Z,12.63
2022-12-01T04:56:15.983Z,13.80
2022-12-01T04:58:43.476Z,18.83
2022-12-01T05:01:14.043Z,13.02
2022-12-01T05:03:42.386Z,13.40
2022-12-01T05:06:13.973Z,14.32
2022-12-01T05:13:02.511Z,14.52
2022-12-01T05:15:29.488Z,15.32
2022-12-01T05:17:56.322Z,13.02
2022-12-01T05:21:04.351Z,12.27
2022-12-01T05:23:32.925Z,15.02
2022-12-01T05:25:59.897Z,12.40
2022-12-01T05:28:26.935Z,12.27
2022-12-01T05:31:01.298Z,13.30
2022-12-01T05:33:28.738Z,20.63
2022-12-01T05:35:55.654Z,16.40
2022-12-01T05:38:22.472Z,13.50
2022-12-01T05:40:56.003Z,12.93
2022-12-01T05:43:28.517Z,13.48
2022-12-01T05:45:57.053Z,16.73
2022-12-01T05:48:24.000Z,13.05
2022-12-01T05:50:50.783Z,20.33
2022-12-01T05:53:20.762Z,17.73
2022-12-01T05:55:54.387Z,14.02
2022-12-01T05:58:22.010Z,16.65
2022-12-01T06:00:48.760Z,13.63
2022-12-01T06:03:15.654Z,11.63
2022-12-01T06:05:42.419Z,15.20
2022-12-01T06:08:09.210Z,16.85
2022-12-01T06:10:35.960Z,13.27
2022-12-01T06:13:02.763Z,17.38
2022-12-01T06:15:29.588Z,13.38
2022-12-01T06:17:59.244Z,13.75
2022-12-01T06:20:26.037Z,12.75
2022-12-01T06:22:52.806Z,11.80
2022-12-01T06:25:19.594Z,16.92
2022-12-01T06:27:47.643Z,16.65
2022-12-01T06:30:14.652Z,11.90
2022-12-01T06:32:41.941Z,12.65
2022-12-01T06:35:09.017Z,19.45
2022-12-01T06:37:37.008Z,16.77
2022-12-01T06:40:04.617Z,23.92
2022-12-01T06:42:32.420Z,23.20
2022-12-01T06:50:18.316Z,32.28
2022-12-01T06:52:45.273Z,26.08
2022-12-01T06:55:12.186Z,25.65
2022-12-01T06:57:40.280Z,21.35
2022-12-01T07:00:09.137Z,19.98
2022-12-01T07:02:39.266Z,26.52
2022-12-01T07:05:06.467Z,26.02
2022-12-01T07:07:36.215Z,31.27
2022-12-01T07:10:03.204Z,36.80
2022-12-01T07:12:32.889Z,42.17
2022-12-01T07:14:59.987Z,41.42
2022-12-01T07:17:26.841Z,33.58
2022-12-01T07:19:53.696Z,34.60
2022-12-01T07:22:20.565Z,35.85
2022-12-01T07:24:47.396Z,40.60
2022-12-01T07:27:14.278Z,34.67
2022-12-01T07:29:41.128Z,33.75
2022-12-01T07:32:07.977Z,30.25
2022-12-01T07:34:34.918Z,33.03
2022-12-01T07:37:01.905Z,36.67
2022-12-01T07:39:28.780Z,28.00
2022-12-01T07:41:55.651Z,37.05
2022-12-01T07:44:22.492Z,41.30
2022-12-01T07:46:49.319Z,39.17
2022-12-01T07:49:16.184Z,33.10
2022-12-01T07:51:43.054Z,37.65
2022-12-01T07:54:10.361Z,35.25
2022-12-01T07:56:37.557Z,32.53
2022-12-01T07:59:04.489Z,29.23
2022-12-01T08:01:31.499Z,36.20
2022-12-01T08:03:58.821Z,32.35
2022-12-01T08:06:26.193Z,32.97
2022-12-01T08:08:53.046Z,35.40
2022-12-01T08:11:21.785Z,33.92
2022-12-01T08:13:49.073Z,55.83
2022-12-01T08:16:17.801Z,44.00
2022-12-01T08:18:44.711Z,35.00
2022-12-01T08:21:13.437Z,38.22
2022-12-01T08:23:41.562Z,33.53
2022-12-01T08:26:12.467Z,32.17
2022-12-01T08:28:42.252Z,38.22
2022-12-01T08:31:10.246Z,43.22
2022-12-01T08:33:37.714Z,33.15
2022-12-01T08:36:05.364Z,40.15
2022-12-01T08:38:32.353Z,39.53
2022-12-01T08:41:07.165Z,36.30
2022-12-01T08:43:56.460Z,35.95
2022-12-01T08:46:21.071Z,31.05
2022-12-01T08:49:11.466Z,36.15
2022-12-01T08:51:38.258Z,37.40
2022-12-01T08:54:05.150Z,32.30
2022-12-01T08:56:36.488Z,44.63
2022-12-01T08:59:03.397Z,38.70
2022-12-01T09:01:30.286Z,33.67
2022-12-01T09:04:08.481Z,40.20
2022-12-01T09:06:41.697Z,39.15
2022-12-01T09:09:11.847Z,46.53
2022-12-01T09:11:38.747Z,44.15
2022-12-01T09:14:05.637Z,53.83
2022-12-01T09:16:33.294Z,41.80
2022-12-01T09:19:00.156Z,40.53
2022-12-01T09:25:28.434Z,37.00
2022-12-01T09:27:55.301Z,39.00
2022-12-01T09:30:22.147Z,40.72
2022-12-01T09:32:49.075Z,40.08
2022-12-01T09:35:19.591Z,41.67
2022-12-01T09:37:49.032Z,42.50
2022-12-01T09:40:15.981Z,39.70
2022-12-01T09:42:43.332Z,48.47
2022-12-01T09:45:16.347Z,37.92
2022-12-01T09:47:46.658Z,39.53
2022-12-01T09:50:20.110Z,33.05
2022-12-01T09:53:02.248Z,45.95
2022-12-01T09:55:29.249Z,37.17
2022-12-01T09:57:57.867Z,36.03
2022-12-01T10:00:27.752Z,39.72
2022-12-01T10:03:03.083Z,33.58
2022-12-01T10:06:03.003Z,37.33
2022-12-01T10:08:30.523Z,35.70
2022-12-01T10:11:01.050Z,39.42
2022-12-01T10:13:29.222Z,34.65
2022-12-01T10:16:12.433Z,38.05
2022-12-01T10:18:48.252Z,35.20
2022-12-01T10:21:35.480Z,35.00
2022-12-01T10:24:13.458Z,36.40
2022-12-01T10:27:05.386Z,38.10
2022-12-01T10:29:49.790Z,32.67
2022-12-01T10:32:17.011Z,36.97
2022-12-01T10:34:46.601Z,38.05
2022-12-01T10:37:25.647Z,36.03
2022-12-01T10:39:53.360Z,43.25
2022-12-01T10:42:29.608Z,33.63
2022-12-01T10:44:56.792Z,35.38
2022-12-01T10:47:28.092Z,37.88
2022-12-01T10:49:55.024Z,34.03
2022-12-01T10:52:37.664Z,34.10
2022-12-01T10:55:26.565Z,37.35
2022-12-01T10:57:54.846Z,36.33
2022-12-01T11:00:57.512Z,42.38
2022-12-01T11:03:21.830Z,41.33
2022-12-01T11:05:53.859Z,31.17
2022-12-01T11:08:40.670Z,29.35
2022-12-01T11:11:36.680Z,33.80
2022-12-01T11:14:06.240Z,33.28
2022-12-01T11:16:45.898Z,35.15
2022-12-01T11:19:35.040Z,32.65
2022-12-01T11:22:12.898Z,30.20
2022-12-01T11:24:42.471Z,28.52
2022-12-01T11:27:20.093Z,34.72
2022-12-01T11:29:50.937Z,36.95
2022-12-01T11:32:30.879Z,41.65
2022-12-01T11:35:21.504Z,32.40
2022-12-01T11:38:21.035Z,43.60
2022-12-01T11:40:48.424Z,31.90
2022-12-01T11:43:27.866Z,30.48
2022-12-01T11:45:55.291Z,33.75
2022-12-01T11:48:27.497Z,30.50
2022-12-01T11:51:08.111Z,35.28
2022-12-01T11:53:39.809Z,31.88
2022-12-01T11:56:12.822Z,28.98
2022-12-01T11:58:39.764Z,33.15
2022-12-01T12:01:32.342Z,36.50
2022-12-01T12:04:22.316Z,34.50
2022-12-01T12:06:55.241Z,33.03
2022-12-01T12:09:45.346Z,38.60
2022-12-01T12:12:35.245Z,35.22
2022-12-01T12:15:42.092Z,37.25
2022-12-01T12:18:11.997Z,36.08
2022-12-01T12:20:57.442Z,41.58
2022-12-01T12:24:02.302Z,34.63
2022-12-01T12:26:30.914Z,31.83
2022-12-01T12:29:25.548Z,33.08
2022-12-01T12:31:52.349Z,34.72
2022-12-01T12:34:40.279Z,35.13
2022-12-01T12:37:25.073Z,36.17
2022-12-01T12:40:29.291Z,36.10
2022-12-01T12:45:40.823Z,34.65
2022-12-01T12:48:13.514Z,33.08
2022-12-01T12:50:58.914Z,47.08
2022-12-01T12:53:28.957Z,51.05
2022-12-01T12:55:59.347Z,38.83
2022-12-01T12:58:34.936Z,47.97
2022-12-01T13:01:11.724Z,46.75
2022-12-01T13:03:46.963Z,45.38
2022-12-01T13:06:45.095Z,52.58
2022-12-01T13:09:16.466Z,38.35
2022-12-01T13:12:08.202Z,44.47
2022-12-01T13:15:00.831Z,78.20
2022-12-01T13:17:40.123Z,59.38
2022-12-01T13:20:07.667Z,120.25
2022-12-01T13:22:35.227Z,57.95
2022-12-01T13:25:03.093Z,149.93
2022-12-01T13:27:33.221Z,138.32
2022-12-01T13:30:00.113Z,67.15
2022-12-01T13:32:36.581Z,40.42
2022-12-01T13:35:20.574Z,35.58
2022-12-01T13:37:47.572Z,39.10
2022-12-01T13:40:27.923Z,41.22
2022-12-01T13:42:54.737Z,35.13
2022-12-01T13:45:21.744Z,42.22
2022-12-01T13:47:54.792Z,70.03
2022-12-01T13:50:43.932Z,66.72
2022-12-01T13:53:19.899Z,88.35
2022-12-01T13:56:14.994Z,47.92
2022-12-01T13:58:44.309Z,45.58
2022-12-01T14:01:20.294Z,40.40
2022-12-01T14:03:57.342Z,64.28
2022-12-01T14:06:30.782Z,39.63
2022-12-01T14:11:31.111Z,34.75
2022-12-01T14:14:02.699Z,104.82
2022-12-01T14:17:05.222Z,37.13
2022-12-01T14:19:45.977Z,51.35
2022-12-01T14:22:50.389Z,42.08
2022-12-01T14:25:20.269Z,37.42
2022-12-01T14:27:54.939Z,39.63
2022-12-01T14:30:45.102Z,47.50
2022-12-01T14:33:42.367Z,37.13
2022-12-01T14:36:24.375Z,34.42
2022-12-01T14:39:00.398Z,36.28
2022-12-01T14:41:45.478Z,35.58
2022-12-01T14:44:23.690Z,37.53
2022-12-01T14:46:59.940Z,40.35
2022-12-01T14:49:37.705Z,41.20
2022-12-01T14:52:05.841Z,39.08
2022-12-01T14:54:59.461Z,38.70
2022-12-01T14:57:39.838Z,34.00
2022-12-01T15:00:13.322Z,43.53
2022-12-01T15:02:47.838Z,40.72
2022-12-01T15:05:16.786Z,37.63
2022-12-01T15:07:46.071Z,37.40
2022-12-01T15:10:34.542Z,40.15
2022-12-01T15:13:42.330Z,41.22
2022-12-01T15:16:15.022Z,50.63
2022-12-01T15:18:41.852Z,57.47
2022-12-01T15:21:30.902Z,170.77
2022-12-01T15:24:02.044Z,134.50
2022-12-01T15:26:34.299Z,76.18
2022-12-01T15:29:15.488Z,43.80
2022-12-01T15:31:49.659Z,40.40
2022-12-01T15:34:19.419Z,37.85
2022-12-01T15:36:46.456Z,37.70
2022-12-01T15:39:17.798Z,37.10
2022-12-01T15:41:45.060Z,39.22
2022-12-01T15:44:33.020Z,34.75
2022-12-01T15:47:00.048Z,35.55
2022-12-01T15:49:29.745Z,36.63
2022-12-01T15:52:08.224Z,32.58
2022-12-01T15:54:35.389Z,31.48
2022-12-01T15:57:03.476Z,32.55
2022-12-01T15:59:32.126Z,32.13
2022-12-01T16:01:59.169Z,38.38
2022-12-01T16:04:32.266Z,41.70
2022-12-01T16:07:09.347Z,33.92
2022-12-01T16:09:55.833Z,31.95
2022-12-01T16:12:24.502Z,30.33
2022-12-01T16:15:01.483Z,33.80
2022-12-01T16:17:40.440Z,33.38
2022-12-01T16:20:38.387Z,31.70
2022-12-01T16:23:10.468Z,31.55
2022-12-01T16:25:39.159Z,35.80
2022-12-01T16:28:07.403Z,29.73
2022-12-01T16:30:38.704Z,33.83
2022-12-01T16:33:19.210Z,36.75
2022-12-01T16:35:46.006Z,36.03
2022-12-01T16:38:22.597Z,38.53
2022-12-01T16:40:51.484Z,34.40
2022-12-01T16:43:19.829Z,33.38
2022-12-01T16:45:50.199Z,35.75
2022-12-01T16:48:19.440Z,39.20
2022-12-01T16:50:49.373Z,39.88
2022-12-01T16:53:16.250Z,39.67
2022-12-01T16:55:51.504Z,41.03
2022-12-01T16:58:18.414Z,35.80
2022-12-01T17:00:45.367Z,37.70
2022-12-01T17:03:12.839Z,41.30
2022-12-01T17:05:40.136Z,47.65
2022-12-01T17:08:07.022Z,40.70
2022-12-01T17:10:36.256Z,44.75
2022-12-01T17:13:03.032Z,42.22
2022-12-01T17:15:30.658Z,47.70
2022-12-01T17:17:57.424Z,39.05
2022-12-01T17:20:24.226Z,42.08
2022-12-01T17:22:51.760Z,38.58
2022-12-01T17:25:18.525Z,35.63
2022-12-01T17:27:45.820Z,41.95
2022-12-01T17:30:13.062Z,47.83
2022-12-01T17:32:39.885Z,61.65
2022-12-01T17:35:07.072Z,56.45
2022-12-01T17:37:33.921Z,45.75
2022-12-01T17:40:00.686Z,59.85
2022-12-01T17:42:27.460Z,47.92
2022-12-01T17:44:54.230Z,48.13
2022-12-01T17:47:21.018Z,48.40
2022-12-01T17:49:47.790Z,46.63
2022-12-01T17:52:14.634Z,42.42
2022-12-01T17:54:41.509Z,49.92
2022-12-01T17:57:08.615Z,43.38
2022-12-01T17:59:36.744Z,46.70
2022-12-01T18:02:04.134Z,42.17
2022-12-01T18:04:31.412Z,48.75
2022-12-01T18:06:58.323Z,61.03
2022-12-01T18:09:25.211Z,61.53
2022-12-01T18:11:53.395Z,58.45
2022-12-01T18:14:20.226Z,60.80
2022-12-01T18:16:48.014Z,62.05
2022-12-01T18:19:14.846Z,56.20
2022-12-01T18:21:41.726Z,56.10
2022-12-01T18:24:11.518Z,52.88
2022-12-01T18:26:39.936Z,67.00
2022-12-01T18:29:13.761Z,51.45
2022-12-01T18:31:40.572Z,51.85
2022-12-01T18:34:08.042Z,45.30
2022-12-01T18:36:36.568Z,47.22
2022-12-01T18:39:04.915Z,53.03
2022-12-01T18:41:31.889Z,50.42
2022-12-01T18:43:58.695Z,40.33
2022-12-01T18:46:25.558Z,47.90
2022-12-01T18:49:03.332Z,43.53
2022-12-01T18:51:31.672Z,36.20
2022-12-01T18:53:59.181Z,48.22
2022-12-01T18:56:26.224Z,45.30
2022-12-01T18:59:01.095Z,46.80
2022-12-01T19:01:33.198Z,49.63
2022-12-01T19:04:00.426Z,57.92
2022-12-01T19:06:27.337Z,59.47
2022-12-01T19:08:54.250Z,55.13
2022-12-01T19:11:21.174Z,64.22
2022-12-01T19:13:48.055Z,57.67
2022-12-01T19:16:16.526Z,90.53
2022-12-01T19:18:43.478Z,51.88
2022-12-01T19:21:12.183Z,49.05
2022-12-01T19:23:39.882Z,48.88
2022-12-01T19:26:44.319Z,48.90
2022-12-01T19:29:11.169Z,51.58
2022-12-01T19:31:38.201Z,66.45
2022-12-01T19:34:05.172Z,57.95
2022-12-01T19:36:31.951Z,55.35
2022-12-01T19:39:00.405Z,56.97
2022-12-01T19:41:28.197Z,51.80
2022-12-01T19:43:55.085Z,50.92
2022-12-01T19:46:23.281Z,54.38
2022-12-01T19:52:37.758Z,51.00
2022-12-01T19:55:05.880Z,51.50
2022-12-01T19:57:34.693Z,52.78
2022-12-01T20:00:01.498Z,56.05
2022-12-01T20:02:38.845Z,51.92
2022-12-01T20:05:06.132Z,57.90
2022-12-01T20:07:32.991Z,59.83
2022-12-01T20:09:59.893Z,48.60
2022-12-01T20:12:26.752Z,65.05
2022-12-01T20:14:53.863Z,65.30
2022-12-01T20:17:20.754Z,52.88
2022-12-01T20:19:47.541Z,62.40
2022-12-01T20:22:14.424Z,50.55
2022-12-01T20:24:41.971Z,57.20
2022-12-01T20:27:08.963Z,48.17
2022-12-01T20:29:35.794Z,44.45
2022-12-01T20:32:03.212Z,52.92
2022-12-01T20:34:34.961Z,50.72
2022-12-01T20:37:02.026Z,48.60
2022-12-01T20:39:32.337Z,55.15
2022-12-01T20:41:59.173Z,54.65
2022-12-01T20:44:27.128Z,51.08
2022-12-01T20:46:54.031Z,47.88
2022-12-01T20:49:20.808Z,44.42
2022-12-01T20:52:25.809Z,46.35
2022-12-01T20:54:53.581Z,55.30
2022-12-01T20:57:20.483Z,45.08
2022-12-01T20:59:47.268Z,45.25
2022-12-01T21:02:14.155Z,49.30
2022-12-01T21:04:41.622Z,46.53
2022-12-01T21:07:08.553Z,50.80
2022-12-01T21:09:35.349Z,45.53
2022-12-01T21:12:20.596Z,47.47
2022-12-01T21:15:19.485Z,48.00
2022-12-01T21:18:02.189Z,42.40
2022-12-01T21:20:34.135Z,47.27
2022-12-01T21:23:11.654Z,47.45
2022-12-01T21:25:39.353Z,44.50
2022-12-01T21:28:26.616Z,45.63
2022-12-01T21:31:01.616Z,44.53
2022-12-01T21:33:32.077Z,46.30
2022-12-01T21:36:00.875Z,47.20
2022-12-01T21:38:27.775Z,49.83
2022-12-01T21:40:54.633Z,41.08
2022-12-01T21:43:23.056Z,49.97
2022-12-01T21:45:52.104Z,46.13
2022-12-01T21:48:21.308Z,42.78
2022-12-01T21:50:52.377Z,41.05
2022-12-01T21:53:21.021Z,39.90
2022-12-01T21:55:49.245Z,50.03
2022-12-01T21:58:30.165Z,50.85
2022-12-01T22:00:58.305Z,41.75
2022-12-01T22:03:29.114Z,53.92
2022-12-01T22:09:16.958Z,42.53
2022-12-01T22:11:43.796Z,45.88
2022-12-01T22:14:22.660Z,48.22
2022-12-01T22:17:01.505Z,45.85
2022-12-01T22:19:30.684Z,37.10
2022-12-01T22:22:23.944Z,50.08
2022-12-01T22:25:14.655Z,48.53
2022-12-01T22:27:43.308Z,45.13
2022-12-01T22:30:10.083Z,57.22
2022-12-01T22:32:56.003Z,52.03
2022-12-01T22:35:44.773Z,46.13
2022-12-01T22:38:25.127Z,42.35
2022-12-01T22:40:58.093Z,47.45
2022-12-01T22:43:27.105Z,52.33
2022-12-01T22:46:00.004Z,50.67
2022-12-01T22:48:37.112Z,48.83
2022-12-01T22:51:44.454Z,42.95
2022-12-01T22:54:17.142Z,47.75
2022-12-01T22:56:53.741Z,51.63
2022-12-01T22:59:35.139Z,49.63
2022-12-01T23:02:20.993Z,52.75
2022-12-01T23:04:49.438Z,49.88
2022-12-01T23:07:25.758Z,48.20
2022-12-01T23:09:52.645Z,49.70
2022-12-01T23:12:28.747Z,84.30
2022-12-01T23:14:57.957Z,67.38
2022-12-01T23:17:27.136Z,59.35
2022-12-01T23:20:18.891Z,45.28
2022-12-01T23:22:48.890Z,47.60
2022-12-01T23:25:19.311Z,40.33
2022-12-01T23:27:49.425Z,43.67
2022-12-01T23:30:16.863Z,46.20
2022-12-01T23:32:43.852Z,44.92
2022-12-01T23:35:15.096Z,49.92
2022-12-01T23:37:42.463Z,54.53
2022-12-01T23:40:23.314Z,48.45
2022-12-01T23:42:50.100Z,45.25
2022-12-01T23:45:19.880Z,56.28
2022-12-01T23:47:46.707Z,44.10
2022-12-01T23:50:20.130Z,47.92
2022-12-01T23:55:27.387Z,40.10
2022-12-01T23:57:54.242Z,44.95
